createdAt,value
2022-09-16T00:00:33.349Z,76.52
2022-09-16T00:03:00.092Z,76.93
2022-09-16T00:05:27.013Z,76.20
2022-09-16T00:07:54.610Z,75.94
2022-09-16T00:10:21.638Z,76.03
2022-09-16T00:12:49.463Z,77.92
2022-09-16T00:15:16.479Z,77.99
2022-09-16T00:17:43.085Z,77.79
2022-09-16T00:20:10.388Z,77.37
2022-09-16T00:22:36.968Z,77.09
2022-09-16T00:25:03.729Z,76.99
2022-09-16T00:27:30.491Z,76.92
2022-09-16T00:29:57.178Z,76.68
2022-09-16T00:32:25.122Z,76.68
2022-09-16T00:34:52.496Z,78.89
2022-09-16T00:37:19.163Z,79.37
2022-09-16T00:39:49.406Z,80.14
2022-09-16T00:42:16.994Z,81.34
2022-09-16T00:44:54.673Z,81.52
2022-09-16T00:47:26.381Z,81.81
2022-09-16T00:49:57.110Z,81.23
2022-09-16T00:52:23.765Z,80.82
2022-09-16T00:54:50.482Z,79.67
2022-09-16T00:57:17.325Z,79.16
2022-09-16T00:59:47.673Z,79.34
2022-09-16T01:02:17.503Z,79.51
2022-09-16T01:04:53.550Z,80.83
2022-09-16T01:07:43.880Z,81.81
2022-09-16T01:10:12.787Z,83.38
2022-09-16T01:12:42.166Z,83.54
2022-09-16T01:15:09.490Z,86.52
2022-09-16T01:18:01.871Z,86.64
2022-09-16T01:20:43.650Z,86.05
2022-09-16T01:23:41.369Z,85.67
2022-09-16T01:26:55.933Z,85.27
2022-09-16T01:29:40.651Z,84.35
2022-09-16T01:32:42.578Z,83.38
2022-09-16T01:35:20.346Z,82.49
2022-09-16T01:38:11.511Z,82.13
2022-09-16T01:41:02.126Z,81.40
2022-09-16T01:43:54.668Z,81.74
2022-09-16T01:46:43.100Z,81.85
2022-09-16T01:49:12.535Z,82.08
2022-09-16T01:51:46.010Z,81.15
2022-09-16T01:54:15.421Z,80.67
2022-09-16T01:56:48.241Z,80.99
2022-09-16T01:59:23.870Z,80.26
2022-09-16T02:02:11.729Z,80.47
2022-09-16T02:04:45.783Z,81.32
2022-09-16T02:07:15.648Z,83.87
2022-09-16T02:09:49.667Z,83.31
2022-09-16T02:12:23.532Z,84.30
2022-09-16T02:14:55.916Z,84.14
2022-09-16T02:17:25.590Z,85.08
2022-09-16T02:19:57.843Z,85.24
2022-09-16T02:22:43.543Z,85.58
2022-09-16T02:25:13.608Z,86.22
2022-09-16T02:27:43.185Z,85.86
2022-09-16T02:30:15.297Z,85.54
2022-09-16T02:32:46.390Z,85.29
2022-09-16T02:35:17.005Z,85.08
2022-09-16T02:38:04.353Z,84.35
2022-09-16T02:40:51.627Z,83.66
2022-09-16T02:43:18.903Z,83.34
2022-09-16T02:46:10.305Z,82.68
2022-09-16T02:48:36.943Z,82.99
2022-09-16T02:51:15.808Z,82.96
2022-09-16T02:53:55.034Z,81.80
2022-09-16T02:56:48.023Z,80.35
2022-09-16T02:59:16.787Z,81.16
2022-09-16T03:01:45.739Z,87.91
2022-09-16T03:04:15.579Z,90.75
2022-09-16T03:06:42.795Z,91.27
2022-09-16T03:09:12.769Z,90.25
2022-09-16T03:11:45.213Z,89.68
2022-09-16T03:14:37.648Z,88.62
2022-09-16T03:17:22.848Z,88.71
2022-09-16T03:19:55.441Z,88.35
2022-09-16T03:22:40.560Z,87.07
2022-09-16T03:25:18.613Z,86.06
2022-09-16T03:28:06.131Z,85.77
2022-09-16T03:30:38.689Z,84.60
2022-09-16T03:33:34.891Z,83.51
2022-09-16T03:36:05.823Z,87.41
2022-09-16T03:38:35.499Z,89.72
2022-09-16T03:41:04.786Z,88.78
2022-09-16T03:43:31.430Z,88.74
2022-09-16T03:45:58.125Z,87.59
2022-09-16T03:48:24.883Z,87.01
2022-09-16T03:50:51.427Z,86.50
2022-09-16T03:53:17.996Z,86.77
2022-09-16T03:55:44.602Z,85.95
2022-09-16T03:58:11.230Z,85.08
2022-09-16T04:00:37.843Z,84.93
2022-09-16T04:03:04.584Z,84.28
2022-09-16T04:05:31.235Z,83.43
2022-09-16T04:07:57.791Z,83.40
2022-09-16T04:10:24.550Z,83.48
2022-09-16T04:12:51.387Z,83.38
2022-09-16T04:15:18.095Z,83.71
2022-09-16T04:17:44.872Z,85.21
2022-09-16T04:20:11.461Z,86.28
2022-09-16T04:22:38.099Z,86.68
2022-09-16T04:25:05.292Z,88.50
2022-09-16T04:27:32.037Z,88.30
2022-09-16T04:29:58.959Z,87.57
2022-09-16T04:32:25.600Z,86.92
2022-09-16T04:34:52.163Z,86.56
2022-09-16T04:37:19.345Z,86.30
2022-09-16T04:39:47.265Z,85.00
2022-09-16T04:42:14.143Z,84.49
2022-09-16T04:44:40.751Z,83.80
2022-09-16T04:47:07.436Z,82.24
2022-09-16T04:49:33.994Z,80.88
2022-09-16T04:52:00.600Z,81.04
2022-09-16T04:54:27.866Z,79.85
2022-09-16T04:56:54.487Z,80.66
2022-09-16T04:59:21.620Z,80.39
2022-09-16T05:01:48.296Z,81.13
2022-09-16T05:04:15.037Z,82.71
2022-09-16T05:06:41.888Z,81.57
2022-09-16T05:09:10.656Z,79.55
2022-09-16T05:11:39.036Z,79.11
2022-09-16T05:14:09.066Z,78.79
2022-09-16T05:16:35.761Z,80.38
2022-09-16T05:19:05.909Z,81.72
2022-09-16T05:21:35.593Z,81.68
2022-09-16T05:24:03.896Z,81.49
2022-09-16T05:26:32.669Z,81.85
2022-09-16T05:29:11.493Z,82.03
2022-09-16T05:31:40.614Z,81.59
2022-09-16T05:34:15.200Z,82.44
2022-09-16T05:36:43.973Z,81.01
2022-09-16T05:39:23.367Z,79.77
2022-09-16T05:41:54.565Z,76.12
2022-09-16T05:44:21.611Z,74.16
2022-09-16T05:46:48.302Z,73.34
2022-09-16T05:49:20.538Z,73.50
2022-09-16T05:51:48.760Z,73.45
2022-09-16T05:54:15.635Z,73.67
2022-09-16T05:56:42.593Z,73.60
2022-09-16T05:59:12.137Z,72.76
2022-09-16T06:01:39.293Z,73.36
2022-09-16T06:04:08.241Z,71.33
2022-09-16T06:06:54.312Z,69.80
2022-09-16T06:09:23.727Z,68.19
2022-09-16T06:11:58.027Z,67.23
2022-09-16T06:14:28.338Z,64.99
2022-09-16T06:16:54.962Z,63.97
2022-09-16T06:19:21.623Z,61.78
2022-09-16T06:21:48.646Z,60.00
2022-09-16T06:24:17.356Z,58.28
2022-09-16T06:26:45.446Z,57.52
2022-09-16T06:29:12.976Z,56.56
2022-09-16T06:31:39.625Z,54.51
2022-09-16T06:34:07.626Z,53.08
2022-09-16T06:36:38.490Z,53.11
2022-09-16T06:39:07.145Z,50.64
2022-09-16T06:41:34.628Z,50.96
2022-09-16T06:44:01.576Z,50.09
2022-09-16T06:46:29.240Z,49.56
2022-09-16T06:48:59.335Z,52.30
2022-09-16T06:51:31.538Z,52.01
2022-09-16T06:54:03.788Z,52.24
2022-09-16T06:56:30.534Z,50.90
2022-09-16T06:58:57.407Z,50.34
2022-09-16T07:01:26.884Z,49.11
2022-09-16T07:03:54.517Z,47.48
2022-09-16T07:06:26.624Z,47.40
2022-09-16T07:09:05.533Z,46.54
2022-09-16T07:11:32.262Z,46.02
2022-09-16T07:14:00.406Z,44.48
2022-09-16T07:16:27.326Z,43.56
2022-09-16T07:19:00.635Z,43.50
2022-09-16T07:21:30.268Z,42.39
2022-09-16T07:24:02.590Z,42.87
2022-09-16T07:26:34.875Z,43.18
2022-09-16T07:29:03.646Z,42.54
2022-09-16T07:31:34.025Z,41.80
2022-09-16T07:34:05.014Z,42.33
2022-09-16T07:36:38.475Z,42.20
2022-09-16T07:39:05.943Z,42.09
2022-09-16T07:41:35.549Z,43.11
2022-09-16T07:44:03.075Z,42.44
2022-09-16T07:46:32.776Z,41.48
2022-09-16T07:49:01.641Z,40.49
2022-09-16T07:51:29.734Z,41.07
2022-09-16T07:53:59.495Z,40.02
2022-09-16T07:56:29.114Z,39.70
2022-09-16T07:58:56.847Z,37.55
2022-09-16T08:01:24.169Z,35.42
2022-09-16T08:03:51.011Z,34.03
2022-09-16T08:06:20.924Z,34.20
2022-09-16T08:08:48.289Z,34.86
2022-09-16T08:11:15.705Z,34.08
2022-09-16T08:13:44.139Z,34.34
2022-09-16T08:16:13.431Z,33.78
2022-09-16T08:18:41.094Z,34.10
2022-09-16T08:21:10.057Z,34.00
2022-09-16T08:23:37.708Z,34.25
2022-09-16T08:26:05.699Z,33.80
2022-09-16T08:28:40.152Z,32.90
2022-09-16T08:31:19.010Z,32.88
2022-09-16T08:33:46.057Z,32.88
2022-09-16T08:36:15.174Z,33.20
2022-09-16T08:38:44.450Z,33.05
2022-09-16T08:41:32.928Z,32.59
2022-09-16T08:44:03.785Z,32.74
2022-09-16T08:46:40.645Z,32.74
2022-09-16T08:49:29.282Z,33.00
2022-09-16T08:51:58.133Z,33.18
2022-09-16T08:54:47.943Z,33.33
2022-09-16T08:57:27.681Z,33.16
2022-09-16T08:59:58.533Z,33.09
2022-09-16T09:05:22.211Z,32.70
2022-09-16T09:07:54.810Z,32.68
2022-09-16T09:10:47.216Z,32.46
2022-09-16T09:13:44.804Z,33.12
2022-09-16T09:16:35.988Z,32.53
2022-09-16T09:19:17.845Z,32.56
2022-09-16T09:22:07.081Z,32.39
2022-09-16T09:24:59.164Z,32.23
2022-09-16T09:27:56.542Z,32.14
2022-09-16T09:30:32.413Z,32.18
2022-09-16T09:33:41.508Z,32.34
2022-09-16T09:36:30.390Z,32.45
2022-09-16T09:39:26.507Z,32.88
2022-09-16T09:41:57.859Z,32.11
2022-09-16T09:45:20.540Z,31.78
2022-09-16T09:47:52.562Z,32.10
2022-09-16T09:50:29.805Z,32.30
2022-09-16T09:53:11.676Z,32.42
2022-09-16T09:55:40.591Z,32.22
2022-09-16T09:58:35.106Z,32.06
2022-09-16T10:01:01.973Z,32.20
2022-09-16T10:03:30.235Z,31.99
2022-09-16T10:05:57.327Z,31.84
2022-09-16T10:08:48.519Z,31.50
2022-09-16T10:11:18.312Z,31.41
2022-09-16T10:13:53.363Z,31.41
2022-09-16T10:16:25.001Z,31.88
2022-09-16T10:19:03.027Z,31.73
2022-09-16T10:21:47.628Z,31.69
2022-09-16T10:24:34.371Z,31.88
2022-09-16T10:27:37.541Z,31.99
2022-09-16T10:30:18.508Z,31.75
2022-09-16T10:33:02.616Z,31.48
2022-09-16T10:35:35.227Z,31.46
2022-09-16T10:38:17.966Z,31.77
2022-09-16T10:40:55.237Z,31.72
2022-09-16T10:43:23.324Z,32.23
2022-09-16T10:45:53.239Z,32.31
2022-09-16T10:48:26.876Z,32.07
2022-09-16T10:50:59.390Z,32.17
2022-09-16T10:53:51.841Z,32.06
2022-09-16T10:56:21.171Z,31.83
2022-09-16T10:58:47.783Z,32.12
2022-09-16T11:01:26.354Z,32.37
2022-09-16T11:04:40.980Z,32.35
2022-09-16T11:07:10.858Z,31.92
2022-09-16T11:09:52.481Z,32.47
2022-09-16T11:12:55.731Z,32.44
2022-09-16T11:15:34.083Z,32.59
2022-09-16T11:18:09.565Z,32.94
2022-09-16T11:20:54.100Z,32.90
2022-09-16T11:23:39.266Z,32.29
2022-09-16T11:26:17.886Z,32.49
2022-09-16T11:28:52.880Z,32.13
2022-09-16T11:31:24.740Z,32.17
2022-09-16T11:34:21.915Z,32.07
2022-09-16T11:37:02.010Z,31.78
2022-09-16T11:39:37.354Z,32.48
2022-09-16T11:42:33.995Z,32.39
2022-09-16T11:45:16.402Z,32.22
2022-09-16T11:48:01.277Z,31.87
2022-09-16T11:50:41.506Z,31.71
2022-09-16T11:53:22.214Z,32.38
2022-09-16T11:56:02.286Z,31.65
2022-09-16T11:58:50.717Z,31.79
2022-09-16T12:01:29.316Z,31.62
2022-09-16T12:04:05.233Z,32.29
2022-09-16T12:06:42.022Z,31.68
2022-09-16T12:09:39.848Z,31.64
2022-09-16T12:12:14.081Z,31.89
2022-09-16T12:14:45.682Z,31.84
2022-09-16T12:17:26.931Z,31.30
2022-09-16T12:20:29.901Z,31.82
2022-09-16T12:23:06.216Z,31.85
2022-09-16T12:25:43.125Z,32.34
2022-09-16T12:28:32.097Z,32.83
2022-09-16T12:31:34.226Z,33.09
2022-09-16T12:34:08.418Z,32.93
2022-09-16T12:36:39.909Z,33.68
2022-09-16T12:39:06.524Z,34.21
2022-09-16T12:42:19.148Z,34.73
2022-09-16T12:45:15.727Z,34.87
2022-09-16T12:48:18.967Z,34.72
2022-09-16T12:50:51.569Z,34.17
2022-09-16T12:53:50.205Z,34.37
2022-09-16T12:56:16.742Z,34.99
2022-09-16T12:59:27.737Z,35.15
2022-09-16T13:02:00.837Z,35.70
2022-09-16T13:04:37.568Z,35.61
2022-09-16T13:07:05.178Z,35.98
2022-09-16T13:09:36.783Z,36.16
2022-09-16T13:12:35.579Z,36.26
2022-09-16T13:15:00.000Z,36.61
2022-09-16T13:17:36.032Z,36.26
2022-09-16T13:20:20.118Z,36.24
2022-09-16T13:22:52.739Z,36.47
2022-09-16T13:25:25.176Z,36.37
2022-09-16T13:27:54.863Z,36.67
2022-09-16T13:30:38.507Z,36.67
2022-09-16T13:33:11.396Z,36.81
2022-09-16T13:35:39.988Z,37.01
2022-09-16T13:38:18.791Z,37.44
2022-09-16T13:40:58.694Z,37.56
2022-09-16T13:43:49.744Z,37.77
2022-09-16T13:46:38.055Z,38.04
2022-09-16T13:49:11.025Z,38.18
2022-09-16T13:51:45.419Z,38.46
2022-09-16T13:54:21.923Z,38.89
2022-09-16T13:57:18.382Z,39.45
2022-09-16T14:00:20.153Z,39.56
2022-09-16T14:03:14.878Z,39.71
2022-09-16T14:06:15.236Z,39.75
2022-09-16T14:09:06.136Z,39.70
2022-09-16T14:11:56.507Z,40.10
2022-09-16T14:14:46.265Z,40.03
2022-09-16T14:17:26.136Z,40.01
2022-09-16T14:19:58.341Z,40.00
2022-09-16T14:22:27.458Z,39.15
2022-09-16T14:25:05.856Z,39.29
2022-09-16T14:27:43.495Z,39.18
2022-09-16T14:30:17.352Z,39.23
2022-09-16T14:32:45.204Z,39.00
2022-09-16T14:35:26.977Z,38.98
2022-09-16T14:38:01.208Z,39.15
2022-09-16T14:40:29.010Z,39.25
2022-09-16T14:43:00.468Z,39.50
2022-09-16T14:45:28.760Z,40.10
2022-09-16T14:47:56.610Z,40.06
2022-09-16T14:50:33.355Z,39.13
2022-09-16T14:53:05.563Z,39.62
2022-09-16T14:55:36.345Z,39.44
2022-09-16T14:58:03.740Z,39.21
2022-09-16T15:00:38.557Z,38.17
2022-09-16T15:03:14.443Z,38.33
2022-09-16T15:05:45.670Z,38.11
2022-09-16T15:08:57.315Z,38.14
2022-09-16T15:11:46.989Z,38.05
2022-09-16T15:14:15.638Z,37.91
2022-09-16T15:16:49.405Z,38.12
2022-09-16T15:19:23.238Z,38.00
2022-09-16T15:21:50.859Z,38.02
2022-09-16T15:24:21.624Z,38.11
2022-09-16T15:26:48.899Z,38.29
2022-09-16T15:29:18.620Z,37.96
2022-09-16T15:31:46.165Z,38.01
2022-09-16T15:34:19.069Z,38.35
2022-09-16T15:37:32.122Z,37.70
2022-09-16T15:40:19.622Z,38.00
2022-09-16T15:42:48.011Z,37.87
2022-09-16T15:45:20.036Z,37.65
2022-09-16T15:48:05.296Z,37.53
2022-09-16T15:50:44.623Z,37.61
2022-09-16T15:53:22.068Z,37.78
2022-09-16T15:56:01.563Z,38.13
2022-09-16T15:58:41.343Z,37.78
2022-09-16T16:01:16.045Z,37.90
2022-09-16T16:03:45.366Z,38.54
2022-09-16T16:06:12.595Z,38.78
2022-09-16T16:08:47.261Z,38.34
2022-09-16T16:11:19.405Z,38.36
2022-09-16T16:13:47.257Z,38.53
2022-09-16T16:16:15.881Z,38.60
2022-09-16T16:18:44.858Z,38.54
2022-09-16T16:21:15.101Z,38.20
2022-09-16T16:23:42.297Z,38.22
2022-09-16T16:26:10.781Z,38.54
2022-09-16T16:28:38.685Z,38.59
2022-09-16T16:31:09.801Z,38.21
2022-09-16T16:33:36.486Z,38.52
2022-09-16T16:36:04.024Z,38.86
2022-09-16T16:38:30.619Z,40.68
2022-09-16T16:40:57.247Z,40.37
2022-09-16T16:43:23.854Z,39.76
2022-09-16T16:45:55.194Z,40.07
2022-09-16T16:48:22.014Z,39.75
2022-09-16T16:51:15.781Z,40.19
2022-09-16T16:53:42.463Z,40.11
2022-09-16T16:56:14.802Z,40.77
2022-09-16T16:58:45.412Z,42.41
2022-09-16T17:01:14.897Z,44.54
2022-09-16T17:03:41.996Z,42.83
2022-09-16T17:06:09.037Z,42.85
2022-09-16T17:08:35.788Z,42.32
2022-09-16T17:11:10.558Z,42.29
2022-09-16T17:13:39.109Z,42.04
2022-09-16T17:16:06.012Z,42.44
2022-09-16T17:18:34.864Z,41.97
2022-09-16T17:21:06.958Z,41.93
2022-09-16T17:23:34.226Z,41.50
2022-09-16T17:26:01.800Z,41.52
2022-09-16T17:28:28.810Z,41.71
2022-09-16T17:30:55.670Z,42.06
2022-09-16T17:33:22.707Z,41.83
2022-09-16T17:36:06.989Z,41.92
2022-09-16T17:38:34.756Z,41.71
2022-09-16T17:41:09.196Z,41.90
2022-09-16T17:43:36.554Z,41.87
2022-09-16T17:46:05.592Z,42.12
2022-09-16T17:48:32.703Z,42.14
2022-09-16T17:50:59.717Z,42.07
2022-09-16T17:53:26.333Z,42.25
2022-09-16T17:56:01.188Z,42.74
2022-09-16T17:58:27.750Z,42.73
2022-09-16T18:00:54.604Z,42.81
2022-09-16T18:03:21.381Z,42.57
2022-09-16T18:05:50.237Z,42.72
2022-09-16T18:08:16.927Z,42.65
2022-09-16T18:10:43.544Z,43.08
2022-09-16T18:13:10.145Z,43.27
2022-09-16T18:15:36.778Z,43.29
2022-09-16T18:18:03.446Z,43.58
2022-09-16T18:20:31.159Z,43.60
2022-09-16T18:22:57.748Z,43.85
2022-09-16T18:25:24.386Z,44.00
2022-09-16T18:27:50.963Z,44.00
2022-09-16T18:30:17.746Z,44.15
2022-09-16T18:32:44.291Z,44.40
2022-09-16T18:35:12.725Z,45.58
2022-09-16T18:37:39.573Z,45.81
2022-09-16T18:40:07.064Z,46.59
2022-09-16T18:42:33.636Z,46.74
2022-09-16T18:45:00.268Z,47.70
2022-09-16T18:47:26.833Z,47.98
2022-09-16T18:49:53.370Z,48.15
2022-09-16T18:52:20.048Z,48.33
2022-09-16T18:54:47.067Z,49.43
2022-09-16T18:57:14.313Z,49.29
2022-09-16T18:59:40.989Z,49.37
2022-09-16T19:02:11.395Z,49.69
2022-09-16T19:04:40.006Z,49.72
2022-09-16T19:07:08.562Z,50.21
2022-09-16T19:09:38.120Z,50.99
2022-09-16T19:12:05.405Z,50.71
2022-09-16T19:14:32.045Z,50.77
2022-09-16T19:16:59.370Z,50.64
2022-09-16T19:19:25.964Z,50.71
2022-09-16T19:21:52.674Z,50.95
2022-09-16T19:24:21.797Z,50.99
2022-09-16T19:26:50.483Z,51.53
2022-09-16T19:29:17.889Z,51.15
2022-09-16T19:31:46.357Z,51.38
2022-09-16T19:34:14.443Z,51.73
2022-09-16T19:36:41.803Z,51.93
2022-09-16T19:39:10.142Z,52.04
2022-09-16T19:41:38.987Z,52.14
2022-09-16T19:44:08.057Z,52.87
2022-09-16T19:46:37.255Z,53.41
2022-09-16T19:49:05.586Z,54.86
2022-09-16T19:51:33.279Z,54.75
2022-09-16T19:54:01.255Z,54.90
2022-09-16T19:56:30.998Z,55.16
2022-09-16T19:58:57.806Z,55.14
2022-09-16T20:01:27.679Z,55.60
2022-09-16T20:03:54.938Z,55.76
2022-09-16T20:06:35.008Z,56.17
2022-09-16T20:09:03.507Z,56.06
2022-09-16T20:11:32.852Z,56.61
2022-09-16T20:14:01.703Z,55.88
2022-09-16T20:16:31.405Z,55.91
2022-09-16T20:18:58.219Z,56.50
2022-09-16T20:21:27.866Z,55.99
2022-09-16T20:23:55.157Z,56.63
2022-09-16T20:26:22.985Z,56.12
2022-09-16T20:28:54.704Z,56.31
2022-09-16T20:31:26.647Z,57.28
2022-09-16T20:33:54.264Z,56.95
2022-09-16T20:36:23.038Z,56.60
2022-09-16T20:38:50.632Z,56.83
2022-09-16T20:41:21.020Z,57.69
2022-09-16T20:43:48.959Z,58.12
2022-09-16T20:46:21.654Z,58.76
2022-09-16T20:48:49.124Z,58.72
2022-09-16T20:51:17.698Z,58.86
2022-09-16T20:53:44.936Z,58.63
2022-09-16T20:56:14.081Z,58.47
2022-09-16T20:58:41.264Z,58.72
2022-09-16T21:01:10.425Z,58.29
2022-09-16T21:03:37.091Z,58.42
2022-09-16T21:06:08.656Z,58.96
2022-09-16T21:08:38.239Z,61.14
2022-09-16T21:11:13.470Z,62.85
2022-09-16T21:13:42.696Z,63.42
2022-09-16T21:16:11.766Z,64.42
2022-09-16T21:18:39.601Z,65.29
2022-09-16T21:21:07.753Z,65.31
2022-09-16T21:23:35.732Z,65.75
2022-09-16T21:26:04.244Z,65.45
2022-09-16T21:28:31.838Z,64.84
2022-09-16T21:31:01.588Z,64.72
2022-09-16T21:33:32.645Z,63.91
2022-09-16T21:35:59.743Z,63.60
2022-09-16T21:38:28.174Z,63.85
2022-09-16T21:41:00.685Z,63.62
2022-09-16T21:43:30.545Z,63.44
2022-09-16T21:45:59.899Z,63.96
2022-09-16T21:48:27.575Z,63.92
2022-09-16T21:51:01.860Z,64.11
2022-09-16T21:53:30.970Z,64.26
2022-09-16T21:56:05.657Z,64.24
2022-09-16T21:58:32.679Z,63.95
2022-09-16T22:01:18.124Z,64.02
2022-09-16T22:03:47.401Z,64.19
2022-09-16T22:06:19.897Z,64.87
2022-09-16T22:08:48.870Z,66.73
2022-09-16T22:11:19.645Z,65.94
2022-09-16T22:13:46.512Z,66.36
2022-09-16T22:16:18.486Z,65.38
2022-09-16T22:18:45.354Z,65.29
2022-09-16T22:21:14.205Z,65.07
2022-09-16T22:23:41.522Z,66.25
2022-09-16T22:26:11.531Z,68.54
2022-09-16T22:28:39.089Z,69.54
2022-09-16T22:31:17.172Z,70.44
2022-09-16T22:33:45.707Z,70.94
2022-09-16T22:36:15.632Z,71.15
2022-09-16T22:38:49.668Z,70.90
2022-09-16T22:41:17.643Z,70.89
2022-09-16T22:43:46.829Z,71.18
2022-09-16T22:46:24.954Z,70.48
2022-09-16T22:48:52.391Z,70.41
2022-09-16T22:51:20.610Z,70.42
2022-09-16T22:53:48.422Z,69.91
2022-09-16T22:56:29.672Z,70.09
2022-09-16T22:58:57.654Z,69.48
2022-09-16T23:01:28.265Z,68.57
2022-09-16T23:04:00.169Z,68.01
2022-09-16T23:06:29.581Z,66.97
2022-09-16T23:08:56.965Z,67.15
2022-09-16T23:11:26.346Z,66.24
2022-09-16T23:13:54.194Z,65.99
2022-09-16T23:16:27.130Z,66.42
2022-09-16T23:18:56.321Z,66.96
2022-09-16T23:21:23.596Z,67.57
2022-09-16T23:23:55.273Z,68.22
2022-09-16T23:26:24.992Z,68.90
2022-09-16T23:28:53.808Z,68.82
2022-09-16T23:31:23.910Z,69.12
2022-09-16T23:33:50.568Z,69.77
2022-09-16T23:36:18.550Z,69.63
2022-09-16T23:38:46.131Z,71.91
2022-09-16T23:41:19.785Z,73.11
2022-09-16T23:43:48.333Z,74.72
2022-09-16T23:46:17.803Z,75.86
2022-09-16T23:48:44.880Z,77.14
2022-09-16T23:51:12.683Z,77.21
2022-09-16T23:53:39.960Z,78.15
2022-09-16T23:56:08.337Z,77.59
2022-09-16T23:58:35.541Z,76.53
